createdAt,value
2023-04-05T00:01:49.715Z,6.20
2023-04-05T00:04:17.469Z,6.63
2023-04-05T00:06:44.680Z,8.30
2023-04-05T00:09:11.745Z,7.67
2023-04-05T00:11:38.755Z,6.10
2023-04-05T00:14:05.926Z,6.27
2023-04-05T00:16:34.458Z,6.87
2023-04-05T00:19:01.529Z,5.93
2023-04-05T00:21:28.604Z,7.23
2023-04-05T00:23:56.562Z,5.67
2023-04-05T00:26:23.706Z,5.87
2023-04-05T00:28:55.148Z,8.07
2023-04-05T00:31:23.271Z,6.53
2023-04-05T00:33:52.433Z,6.53
2023-04-05T00:36:20.629Z,7.30
2023-04-05T00:38:48.629Z,6.80
2023-04-05T00:41:15.812Z,7.40
2023-04-05T00:43:42.956Z,6.43
2023-04-05T00:46:10.207Z,6.33
2023-04-05T00:48:38.545Z,5.93
2023-04-05T00:51:07.196Z,6.40
2023-04-05T00:53:34.353Z,6.20
2023-04-05T00:56:01.629Z,5.17
2023-04-05T00:58:28.678Z,7.27
2023-04-05T01:01:01.072Z,7.07
2023-04-05T01:03:29.980Z,6.33
2023-04-05T01:06:04.884Z,7.00
2023-04-05T01:08:37.876Z,5.93
2023-04-05T01:11:06.147Z,6.13
2023-04-05T01:13:33.607Z,6.00
2023-04-05T01:16:00.672Z,6.40
2023-04-05T01:18:28.220Z,7.03
2023-04-05T01:21:00.121Z,7.27
2023-04-05T01:23:38.674Z,6.77
2023-04-05T01:26:24.473Z,7.43
2023-04-05T01:28:59.580Z,7.30
2023-04-05T01:31:30.162Z,6.53
2023-04-05T01:34:02.734Z,6.57
2023-04-05T01:36:31.947Z,6.40
2023-04-05T01:39:02.359Z,5.93
2023-04-05T01:41:30.333Z,6.53
2023-04-05T01:43:57.394Z,7.10
2023-04-05T01:46:24.519Z,6.03
2023-04-05T01:48:53.008Z,6.40
2023-04-05T01:51:20.349Z,7.27
2023-04-05T01:53:47.456Z,6.87
2023-04-05T01:56:14.777Z,6.33
2023-04-05T01:58:41.878Z,7.13
2023-04-05T02:01:09.084Z,7.87
2023-04-05T02:03:36.259Z,5.63
2023-04-05T02:06:04.958Z,5.50
2023-04-05T02:08:32.015Z,6.47
2023-04-05T02:10:59.102Z,7.00
2023-04-05T02:13:26.254Z,6.97
2023-04-05T02:15:53.459Z,6.93
2023-04-05T02:18:20.818Z,6.60
2023-04-05T02:20:48.451Z,5.47
2023-04-05T02:23:20.676Z,6.27
2023-04-05T02:25:47.824Z,6.70
2023-04-05T02:28:14.941Z,6.50
2023-04-05T02:30:42.400Z,6.30
2023-04-05T02:33:10.947Z,6.50
2023-04-05T02:35:38.096Z,5.90
2023-04-05T02:38:05.396Z,5.50
2023-04-05T02:40:36.057Z,6.10
2023-04-05T02:43:03.170Z,6.93
2023-04-05T02:45:30.323Z,6.40
2023-04-05T02:47:59.109Z,5.93
2023-04-05T02:50:30.148Z,6.83
2023-04-05T02:52:57.243Z,7.30
2023-04-05T02:55:24.557Z,5.90
2023-04-05T02:57:53.103Z,6.87
2023-04-05T03:00:30.175Z,5.63
2023-04-05T03:02:59.550Z,6.80
2023-04-05T03:05:27.124Z,7.10
2023-04-05T03:07:54.292Z,6.17
2023-04-05T03:10:26.543Z,6.80
2023-04-05T03:13:00.885Z,6.57
2023-04-05T03:15:28.863Z,6.60
2023-04-05T03:17:57.814Z,6.93
2023-04-05T03:20:25.722Z,7.10
2023-04-05T03:22:57.503Z,6.80
2023-04-05T03:25:29.469Z,6.10
2023-04-05T03:27:57.491Z,7.50
2023-04-05T03:30:30.398Z,8.10
2023-04-05T03:33:05.222Z,6.33
2023-04-05T03:35:39.941Z,6.43
2023-04-05T03:38:09.697Z,6.80
2023-04-05T03:40:41.584Z,5.90
2023-04-05T03:43:10.707Z,8.20
2023-04-05T03:45:39.570Z,7.37
2023-04-05T03:48:06.784Z,6.80
2023-04-05T03:50:33.974Z,6.87
2023-04-05T03:53:01.076Z,7.83
2023-04-05T03:55:29.027Z,7.93
2023-04-05T03:57:57.855Z,7.40
2023-04-05T04:00:30.356Z,6.63
2023-04-05T04:03:15.072Z,6.30
2023-04-05T04:05:46.280Z,6.60
2023-04-05T04:08:13.592Z,5.90
2023-04-05T04:10:40.760Z,7.37
2023-04-05T04:13:17.496Z,8.00
2023-04-05T04:15:44.934Z,9.20
2023-04-05T04:18:24.467Z,7.03
2023-04-05T04:21:08.485Z,6.83
2023-04-05T04:23:56.698Z,6.27
2023-04-05T04:26:43.764Z,7.23
2023-04-05T04:29:36.533Z,5.90
2023-04-05T04:32:22.524Z,7.23
2023-04-05T04:35:09.710Z,8.10
2023-04-05T04:37:55.980Z,7.47
2023-04-05T04:40:52.354Z,7.63
2023-04-05T04:43:34.169Z,8.80
2023-04-05T04:46:19.806Z,7.57
2023-04-05T04:49:00.544Z,7.40
2023-04-05T04:51:34.756Z,6.93
2023-04-05T04:54:01.945Z,7.87
2023-04-05T04:56:29.095Z,7.30
2023-04-05T04:58:57.741Z,8.03
2023-04-05T05:01:24.885Z,8.13
2023-04-05T05:03:52.055Z,7.37
2023-04-05T05:06:23.190Z,7.87
2023-04-05T05:08:51.634Z,7.83
2023-04-05T05:11:18.767Z,6.87
2023-04-05T05:13:48.549Z,8.13
2023-04-05T05:16:21.193Z,6.90
2023-04-05T05:18:48.388Z,7.50
2023-04-05T05:21:15.447Z,9.80
2023-04-05T05:23:42.588Z,9.00
2023-04-05T05:26:11.080Z,8.23
2023-04-05T05:28:38.189Z,7.70
2023-04-05T05:31:05.623Z,7.83
2023-04-05T05:33:35.661Z,8.97
2023-04-05T05:36:02.797Z,8.47
2023-04-05T05:38:29.943Z,8.43
2023-04-05T05:40:57.021Z,8.03
2023-04-05T05:43:25.518Z,8.20
2023-04-05T05:45:52.684Z,7.43
2023-04-05T05:48:19.851Z,8.27
2023-04-05T05:50:46.949Z,7.10
2023-04-05T05:53:14.083Z,7.13
2023-04-05T05:55:41.201Z,8.80
2023-04-05T05:58:08.327Z,6.87
2023-04-05T06:00:36.868Z,7.10
2023-04-05T06:03:04.082Z,7.40
2023-04-05T06:05:31.174Z,8.53
2023-04-05T06:07:58.315Z,8.53
2023-04-05T06:10:25.412Z,6.53
2023-04-05T06:12:52.500Z,7.47
2023-04-05T06:15:19.891Z,9.30
2023-04-05T06:17:48.339Z,8.77
2023-04-05T06:20:15.492Z,7.67
2023-04-05T06:22:42.616Z,6.23
2023-04-05T06:25:10.299Z,7.10
2023-04-05T06:27:37.376Z,7.50
2023-04-05T06:30:04.647Z,7.13
2023-04-05T06:32:31.802Z,6.60
2023-04-05T06:35:00.680Z,5.57
2023-04-05T06:37:27.718Z,7.37
2023-04-05T06:39:54.779Z,6.30
2023-04-05T06:42:21.863Z,6.77
2023-04-05T06:44:55.303Z,5.93
2023-04-05T06:47:22.392Z,5.07
2023-04-05T06:49:49.433Z,5.93
2023-04-05T06:52:18.046Z,6.90
2023-04-05T06:54:45.099Z,6.37
2023-04-05T06:57:12.214Z,5.90
2023-04-05T06:59:39.343Z,6.47
2023-04-05T07:02:06.439Z,6.20
2023-04-05T07:04:33.706Z,6.27
2023-04-05T07:07:01.028Z,5.43
2023-04-05T07:09:29.434Z,5.70
2023-04-05T07:11:56.560Z,5.87
2023-04-05T07:14:23.678Z,5.20
2023-04-05T07:16:51.381Z,4.90
2023-04-05T07:19:18.542Z,4.50
2023-04-05T07:21:45.611Z,4.60
2023-04-05T07:24:12.729Z,5.10
2023-04-05T07:26:41.227Z,4.97
2023-04-05T07:29:08.856Z,5.57
2023-04-05T07:31:36.094Z,5.53
2023-04-05T07:34:04.237Z,4.40
2023-04-05T07:36:31.748Z,5.50
2023-04-05T07:38:59.203Z,4.90
2023-04-05T07:41:26.531Z,5.43
2023-04-05T07:43:55.033Z,6.20
2023-04-05T07:46:22.239Z,5.57
2023-04-05T07:48:49.548Z,5.13
2023-04-05T07:51:16.700Z,5.67
2023-04-05T07:53:43.828Z,5.27
2023-04-05T07:56:12.123Z,4.80
2023-04-05T07:58:39.447Z,4.33
2023-04-05T08:01:08.600Z,5.20
2023-04-05T08:03:36.096Z,5.50
2023-04-05T08:06:09.964Z,4.50
2023-04-05T08:08:39.249Z,5.20
2023-04-05T08:11:06.404Z,5.20
2023-04-05T08:13:33.748Z,5.57
2023-04-05T08:16:00.952Z,5.37
2023-04-05T08:18:29.449Z,4.97
2023-04-05T08:20:56.862Z,4.70
2023-04-05T08:23:24.031Z,5.53
2023-04-05T08:25:51.119Z,6.07
2023-04-05T08:28:18.209Z,6.73
2023-04-05T08:30:45.329Z,4.90
2023-04-05T08:33:12.809Z,5.17
2023-04-05T08:35:41.362Z,5.20
2023-04-05T08:38:08.630Z,5.47
2023-04-05T08:40:40.618Z,5.40
2023-04-05T08:43:10.942Z,6.07
2023-04-05T08:45:43.232Z,5.10
2023-04-05T08:48:10.376Z,5.60
2023-04-05T08:50:37.477Z,5.87
2023-04-05T08:53:05.928Z,5.23
2023-04-05T08:55:33.069Z,5.67
2023-04-05T08:58:01.757Z,6.10
2023-04-05T09:00:29.192Z,6.70
2023-04-05T09:02:57.407Z,5.20
2023-04-05T09:05:25.193Z,5.20
2023-04-05T09:07:52.573Z,6.37
2023-04-05T09:10:23.223Z,5.33
2023-04-05T09:12:53.086Z,5.23
2023-04-05T09:15:23.052Z,4.73
2023-04-05T09:17:51.162Z,5.30
2023-04-05T09:20:18.519Z,5.27
2023-04-05T09:22:46.051Z,5.47
2023-04-05T09:25:13.517Z,5.50
2023-04-05T09:27:55.667Z,5.30
2023-04-05T09:30:23.256Z,6.20
2023-04-05T09:32:52.226Z,5.60
2023-04-05T09:35:19.810Z,6.63
2023-04-05T09:37:51.136Z,5.63
2023-04-05T09:40:18.348Z,6.50
2023-04-05T09:42:45.666Z,5.80
2023-04-05T09:45:14.366Z,5.70
2023-04-05T09:47:55.830Z,5.30
2023-04-05T09:50:23.003Z,5.57
2023-04-05T09:52:50.983Z,5.27
2023-04-05T09:55:26.790Z,5.03
2023-04-05T09:57:54.068Z,5.20
2023-04-05T10:00:23.215Z,5.93
2023-04-05T10:02:53.487Z,5.97
2023-04-05T10:05:24.290Z,5.57
2023-04-05T10:07:51.711Z,8.80
2023-04-05T10:10:18.798Z,5.03
2023-04-05T10:12:47.465Z,5.50
2023-04-05T10:15:14.573Z,5.67
2023-04-05T10:17:47.338Z,5.60
2023-04-05T10:20:15.552Z,6.30
2023-04-05T10:22:48.314Z,6.07
2023-04-05T10:25:20.555Z,5.23
2023-04-05T10:27:48.300Z,5.93
2023-04-05T10:30:16.313Z,5.80
2023-04-05T10:32:56.653Z,6.13
2023-04-05T10:35:25.426Z,5.60
2023-04-05T10:37:59.837Z,5.57
2023-04-05T10:40:27.681Z,5.40
2023-04-05T10:42:54.738Z,6.53
2023-04-05T10:45:21.936Z,5.53
2023-04-05T10:47:52.929Z,5.43
2023-04-05T10:50:26.783Z,5.33
2023-04-05T10:52:54.377Z,6.47
2023-04-05T10:55:21.526Z,6.50
2023-04-05T10:57:49.281Z,6.07
2023-04-05T11:00:16.802Z,5.30
2023-04-05T11:02:44.037Z,5.40
2023-04-05T11:05:26.101Z,6.70
2023-04-05T11:07:54.914Z,6.47
2023-04-05T11:10:22.220Z,5.90
2023-04-05T11:13:05.373Z,6.10
2023-04-05T11:15:33.045Z,6.70
2023-04-05T11:18:07.013Z,5.97
2023-04-05T11:20:40.939Z,6.03
2023-04-05T11:23:09.666Z,7.17
2023-04-05T11:25:38.419Z,6.00
2023-04-05T11:28:06.120Z,5.90
2023-04-05T11:30:48.947Z,5.90
2023-04-05T11:33:34.909Z,6.20
2023-04-05T11:36:02.193Z,6.40
2023-04-05T11:38:30.713Z,6.47
2023-04-05T11:41:06.207Z,6.20
2023-04-05T11:43:33.672Z,6.67
2023-04-05T11:46:02.767Z,5.87
2023-04-05T11:48:29.910Z,6.17
2023-04-05T11:50:57.412Z,6.53
2023-04-05T11:53:24.522Z,6.30
2023-04-05T11:55:53.374Z,7.10
2023-04-05T11:58:21.692Z,6.90
2023-04-05T12:00:58.996Z,6.50
2023-04-05T12:03:26.861Z,6.83
2023-04-05T12:05:54.687Z,6.50
2023-04-05T12:08:22.288Z,6.50
2023-04-05T12:10:57.424Z,6.50
2023-04-05T12:13:28.231Z,6.70
2023-04-05T12:15:57.872Z,6.47
2023-04-05T12:18:25.812Z,6.90
2023-04-05T12:20:54.118Z,6.57
2023-04-05T12:23:21.768Z,7.00
2023-04-05T12:25:49.057Z,7.10
2023-04-05T12:28:34.468Z,6.30
2023-04-05T12:31:02.884Z,6.37
2023-04-05T12:33:30.703Z,6.30
2023-04-05T12:35:58.296Z,6.50
2023-04-05T12:38:28.472Z,6.67
2023-04-05T12:40:59.853Z,6.13
2023-04-05T12:43:26.934Z,6.40
2023-04-05T12:45:54.335Z,6.80
2023-04-05T12:48:23.831Z,6.17
2023-04-05T12:50:50.984Z,6.10
2023-04-05T12:53:18.921Z,6.60
2023-04-05T12:55:49.655Z,7.10
2023-04-05T12:58:16.836Z,6.80
2023-04-05T13:00:44.186Z,6.40
2023-04-05T13:03:16.277Z,6.40
2023-04-05T13:05:44.830Z,7.27
2023-04-05T13:08:11.932Z,6.37
2023-04-05T13:10:39.046Z,6.90
2023-04-05T13:13:06.147Z,6.30
2023-04-05T13:15:33.493Z,6.80
2023-04-05T13:18:00.608Z,7.33
2023-04-05T13:20:27.689Z,6.00
2023-04-05T13:22:56.190Z,6.77
2023-04-05T13:25:23.443Z,6.47
2023-04-05T13:27:50.630Z,7.10
2023-04-05T13:30:17.761Z,7.00
2023-04-05T13:32:45.097Z,7.50
2023-04-05T13:35:12.389Z,6.47
2023-04-05T13:37:39.451Z,6.53
2023-04-05T13:40:08.863Z,7.13
2023-04-05T13:42:35.935Z,7.03
2023-04-05T13:45:03.014Z,7.00
2023-04-05T13:47:30.168Z,7.10
2023-04-05T13:49:57.403Z,6.83
2023-04-05T13:52:24.613Z,6.97
2023-04-05T13:55:02.133Z,7.50
2023-04-05T13:57:32.338Z,7.10
2023-04-05T13:59:59.553Z,6.50
2023-04-05T14:02:26.903Z,6.13
2023-04-05T14:04:54.120Z,7.10
2023-04-05T14:07:21.434Z,6.47
2023-04-05T14:09:48.649Z,7.50
2023-04-05T14:12:15.875Z,7.30
2023-04-05T14:14:44.349Z,7.80
2023-04-05T14:17:11.577Z,7.40
2023-04-05T14:19:38.788Z,7.17
2023-04-05T14:22:05.998Z,7.10
2023-04-05T14:24:33.089Z,7.83
2023-04-05T14:27:00.211Z,6.97
2023-04-05T14:29:27.555Z,7.20
2023-04-05T14:31:56.395Z,7.80
2023-04-05T14:34:23.558Z,7.40
2023-04-05T14:36:50.741Z,7.60
2023-04-05T14:39:18.050Z,8.03
2023-04-05T14:41:45.210Z,7.27
2023-04-05T14:44:12.347Z,7.83
2023-04-05T14:46:39.466Z,13.53
2023-04-05T14:49:07.871Z,7.70
2023-04-05T14:51:35.149Z,7.00
2023-04-05T14:54:02.302Z,7.50
2023-04-05T14:56:29.745Z,8.57
2023-04-05T14:58:56.905Z,6.93
2023-04-05T15:01:24.082Z,6.83
2023-04-05T15:03:53.571Z,8.30
2023-04-05T15:06:22.358Z,8.00
2023-04-05T15:08:49.497Z,7.60
2023-04-05T15:11:16.713Z,7.50
2023-04-05T15:13:43.795Z,6.50
2023-04-05T15:16:10.904Z,9.10
2023-04-05T15:18:38.091Z,7.67
2023-04-05T15:21:05.570Z,8.47
2023-04-05T15:23:34.124Z,8.73
2023-04-05T15:26:01.403Z,8.00
2023-04-05T15:28:28.520Z,8.30
2023-04-05T15:30:55.685Z,8.43
2023-04-05T15:33:22.795Z,7.70
2023-04-05T15:35:50.041Z,7.80
2023-04-05T15:38:17.245Z,7.90
2023-04-05T15:40:47.137Z,7.50
2023-04-05T15:43:15.649Z,8.07
2023-04-05T15:45:42.824Z,7.80
2023-04-05T15:48:10.024Z,7.10
2023-04-05T15:50:37.187Z,7.00
2023-04-05T15:53:04.296Z,7.73
2023-04-05T15:55:31.475Z,7.60
2023-04-05T15:57:59.776Z,7.77
2023-04-05T16:00:28.256Z,7.20
2023-04-05T16:02:56.076Z,8.80
2023-04-05T16:05:24.018Z,8.40
2023-04-05T16:07:51.137Z,8.00
2023-04-05T16:10:18.324Z,9.57
2023-04-05T16:12:45.415Z,7.33
2023-04-05T16:15:12.896Z,7.10
2023-04-05T16:17:41.403Z,7.37
2023-04-05T16:20:08.894Z,7.17
2023-04-05T16:22:36.066Z,7.00
2023-04-05T16:25:03.204Z,8.10
2023-04-05T16:27:30.279Z,7.93
2023-04-05T16:29:57.338Z,7.50
2023-04-05T16:32:24.504Z,7.57
2023-04-05T16:34:52.942Z,8.27
2023-04-05T16:37:20.008Z,6.93
2023-04-05T16:39:47.107Z,6.90
2023-04-05T16:42:14.261Z,7.00
2023-04-05T16:44:41.384Z,7.30
2023-04-05T16:47:08.619Z,7.47
2023-04-05T16:49:35.728Z,7.63
2023-04-05T16:52:04.219Z,7.53
2023-04-05T16:54:31.358Z,7.70
2023-04-05T16:56:58.527Z,7.67
2023-04-05T16:59:25.685Z,7.77
2023-04-05T17:01:52.897Z,7.27
2023-04-05T17:04:20.174Z,7.20
2023-04-05T17:06:47.351Z,7.33
2023-04-05T17:09:15.846Z,8.13
2023-04-05T17:11:42.990Z,7.50
2023-04-05T17:14:10.096Z,7.63
2023-04-05T17:16:37.249Z,7.47
2023-04-05T17:19:04.735Z,6.97
2023-04-05T17:21:32.139Z,6.73
2023-04-05T17:23:59.276Z,6.90
2023-04-05T17:26:27.843Z,7.20
2023-04-05T17:28:54.953Z,7.57
2023-04-05T17:31:22.129Z,6.60
2023-04-05T17:33:49.320Z,7.03
2023-04-05T17:36:16.484Z,6.40
2023-04-05T17:38:43.580Z,7.93
2023-04-05T17:41:10.940Z,7.63
2023-04-05T17:43:39.385Z,7.03
2023-04-05T17:46:06.539Z,8.93
2023-04-05T17:48:33.722Z,7.00
2023-04-05T17:51:04.398Z,7.50
2023-04-05T17:53:31.502Z,7.43
2023-04-05T17:55:58.605Z,6.17
2023-04-05T17:58:25.727Z,7.20
2023-04-05T18:00:54.223Z,7.67
2023-04-05T18:03:21.454Z,8.63
2023-04-05T18:05:50.012Z,7.73
2023-04-05T18:08:17.087Z,7.80
2023-04-05T18:10:44.280Z,8.40
2023-04-05T18:13:11.402Z,7.20
2023-04-05T18:15:38.597Z,7.97
2023-04-05T18:18:07.177Z,6.87
2023-04-05T18:20:34.494Z,8.70
2023-04-05T18:23:01.574Z,8.20
2023-04-05T18:25:28.736Z,7.10
2023-04-05T18:27:55.850Z,8.40
2023-04-05T18:30:22.999Z,8.17
2023-04-05T18:32:51.215Z,10.17
2023-04-05T18:35:19.656Z,8.63
2023-04-05T18:37:46.830Z,9.80
2023-04-05T18:40:13.985Z,9.83
2023-04-05T18:42:43.255Z,7.17
2023-04-05T18:45:10.774Z,8.93
2023-04-05T18:47:37.961Z,8.07
2023-04-05T18:50:05.427Z,7.80
2023-04-05T18:52:33.906Z,6.57
2023-04-05T18:55:01.000Z,9.77
2023-04-05T18:57:28.120Z,8.70
2023-04-05T18:59:55.320Z,8.83
2023-04-05T19:02:22.505Z,8.23
2023-04-05T19:04:49.797Z,9.43
2023-04-05T19:07:17.039Z,9.07
2023-04-05T19:09:45.584Z,9.60
2023-04-05T19:12:12.735Z,9.00
2023-04-05T19:14:39.922Z,9.57
2023-04-05T19:17:09.050Z,8.87
2023-04-05T19:19:36.380Z,8.47
2023-04-05T19:22:03.690Z,8.00
2023-04-05T19:24:30.806Z,9.80
2023-04-05T19:26:59.298Z,8.57
2023-04-05T19:29:26.387Z,8.43
2023-04-05T19:31:54.911Z,8.13
2023-04-05T19:34:22.115Z,8.63
2023-04-05T19:36:49.210Z,8.23
2023-04-05T19:39:16.287Z,8.47
2023-04-05T19:41:43.899Z,9.03
2023-04-05T19:44:12.344Z,8.30
2023-04-05T19:46:40.385Z,7.60
2023-04-05T19:49:09.763Z,8.00
2023-04-05T19:51:37.066Z,8.90
2023-04-05T19:54:06.265Z,8.07
2023-04-05T19:56:34.686Z,7.40
2023-04-05T19:59:02.491Z,8.40
2023-04-05T20:01:32.754Z,7.27
2023-04-05T20:04:00.176Z,7.97
2023-04-05T20:06:27.347Z,7.43
2023-04-05T20:08:59.289Z,7.77
2023-04-05T20:11:27.880Z,8.37
2023-04-05T20:13:55.564Z,6.87
2023-04-05T20:16:24.515Z,7.70
2023-04-05T20:18:53.160Z,7.30
2023-04-05T20:21:20.673Z,6.90
2023-04-05T20:23:47.998Z,7.80
2023-04-05T20:26:16.012Z,8.10
2023-04-05T20:28:43.413Z,6.93
2023-04-05T20:31:10.939Z,6.93
2023-04-05T20:33:44.777Z,7.47
2023-04-05T20:36:13.463Z,6.30
2023-04-05T20:38:41.050Z,6.43
2023-04-05T20:41:08.497Z,6.33
2023-04-05T20:43:35.710Z,6.73
2023-04-05T20:46:03.595Z,7.33
2023-04-05T20:48:30.761Z,6.80
2023-04-05T20:50:57.908Z,6.00
2023-04-05T20:53:26.414Z,5.70
2023-04-05T20:55:53.521Z,6.47
2023-04-05T20:58:20.654Z,7.80
2023-04-05T21:00:47.720Z,6.30
2023-04-05T21:03:15.136Z,5.80
2023-04-05T21:05:42.410Z,6.20
2023-04-05T21:08:09.543Z,6.40
2023-04-05T21:10:38.046Z,6.30
2023-04-05T21:13:05.159Z,6.20
2023-04-05T21:15:32.297Z,7.27
2023-04-05T21:17:59.584Z,6.17
2023-04-05T21:20:27.211Z,8.03
2023-04-05T21:22:54.425Z,6.93
2023-04-05T21:25:21.603Z,6.57
2023-04-05T21:27:50.187Z,7.20
2023-04-05T21:30:17.554Z,7.33
2023-04-05T21:32:45.109Z,6.87
2023-04-05T21:35:12.333Z,6.97
2023-04-05T21:37:39.464Z,6.30
2023-04-05T21:40:07.343Z,7.07
2023-04-05T21:42:34.463Z,6.77
2023-04-05T21:45:02.969Z,6.53
2023-04-05T21:47:30.101Z,6.30
2023-04-05T21:49:57.311Z,6.00
2023-04-05T21:52:24.498Z,6.30
2023-04-05T21:54:51.743Z,7.03
2023-04-05T21:57:19.037Z,6.13
2023-04-05T21:59:46.153Z,6.07
2023-04-05T22:02:14.587Z,6.63
2023-04-05T22:04:41.660Z,7.40
2023-04-05T22:07:08.751Z,6.57
2023-04-05T22:09:35.913Z,7.37
2023-04-05T22:12:03.247Z,6.60
2023-04-05T22:14:30.382Z,6.60
2023-04-05T22:16:57.531Z,6.90
2023-04-05T22:19:26.143Z,7.13
2023-04-05T22:21:53.237Z,6.20
2023-04-05T22:24:20.318Z,6.40
2023-04-05T22:26:47.440Z,6.00
2023-04-05T22:29:14.537Z,6.87
2023-04-05T22:31:41.669Z,6.00
2023-04-05T22:34:08.813Z,6.27
2023-04-05T22:36:37.315Z,6.97
2023-04-05T22:39:04.483Z,6.70
2023-04-05T22:41:31.609Z,7.10
2023-04-05T22:43:58.776Z,6.93
2023-04-05T22:46:26.034Z,6.90
2023-04-05T22:48:53.262Z,7.23
2023-04-05T22:51:20.336Z,6.80
2023-04-05T22:53:48.974Z,7.33
2023-04-05T22:56:16.087Z,6.83
2023-04-05T22:58:43.161Z,6.57
2023-04-05T23:01:10.331Z,6.23
2023-04-05T23:03:37.452Z,6.67
2023-04-05T23:06:04.647Z,6.67
2023-04-05T23:08:31.738Z,6.90
2023-04-05T23:11:00.191Z,7.63
2023-04-05T23:13:27.362Z,8.20
2023-04-05T23:15:54.513Z,7.03
2023-04-05T23:18:21.675Z,7.43
2023-04-05T23:20:48.996Z,6.73
2023-04-05T23:23:16.223Z,7.93
2023-04-05T23:25:43.332Z,7.30
2023-04-05T23:28:11.809Z,8.40
2023-04-05T23:30:38.940Z,7.87
2023-04-05T23:33:06.130Z,7.70
2023-04-05T23:35:33.349Z,7.57
2023-04-05T23:38:00.520Z,7.60
2023-04-05T23:40:27.612Z,9.37
2023-04-05T23:42:54.764Z,7.60
2023-04-05T23:45:23.252Z,7.30
2023-04-05T23:47:50.436Z,7.97
2023-04-05T23:50:17.648Z,9.10
2023-04-05T23:52:44.777Z,9.83
2023-04-05T23:55:11.935Z,8.53
2023-04-05T23:57:39.025Z,7.50
